sensor_id;sensor_type;location;lat;lon;timestamp;temperature;humidity
43647;DHT22;56152;49.996;18.980;2024-03-22T00:00:11;10.10;80.20
43647;DHT22;56152;49.996;18.980;2024-03-22T00:05:13;10.10;80.50
43647;DHT22;56152;49.996;18.980;2024-03-22T00:10:18;10.10;80.90
43647;DHT22;56152;49.996;18.980;2024-03-22T00:15:21;10.20;81.40
43647;DHT22;56152;49.996;18.980;2024-03-22T00:20:23;10.20;81.70
43647;DHT22;56152;49.996;18.980;2024-03-22T00:25:27;10.20;82.00
43647;DHT22;56152;49.996;18.980;2024-03-22T00:30:29;10.20;82.50
43647;DHT22;56152;49.996;18.980;2024-03-22T00:35:31;10.20;82.70
43647;DHT22;56152;49.996;18.980;2024-03-22T00:40:37;10.10;83.10
43647;DHT22;56152;49.996;18.980;2024-03-22T00:45:41;10.10;83.60
43647;DHT22;56152;49.996;18.980;2024-03-22T00:50:43;10.00;83.90
43647;DHT22;56152;49.996;18.980;2024-03-22T00:55:47;10.00;84.30
43647;DHT22;56152;49.996;18.980;2024-03-22T01:00:52;9.90;84.90
43647;DHT22;56152;49.996;18.980;2024-03-22T01:05:57;9.90;85.20
43647;DHT22;56152;49.996;18.980;2024-03-22T01:11:03;9.80;85.70
43647;DHT22;56152;49.996;18.980;2024-03-22T01:16:05;9.80;86.10
43647;DHT22;56152;49.996;18.980;2024-03-22T01:21:09;9.80;86.20
43647;DHT22;56152;49.996;18.980;2024-03-22T01:26:13;9.80;86.50
43647;DHT22;56152;49.996;18.980;2024-03-22T01:31:15;9.80;86.90
43647;DHT22;56152;49.996;18.980;2024-03-22T01:36:16;9.70;87.10
43647;DHT22;56152;49.996;18.980;2024-03-22T01:41:21;9.70;87.50
43647;DHT22;56152;49.996;18.980;2024-03-22T01:46:22;9.70;87.70
43647;DHT22;56152;49.996;18.980;2024-03-22T01:51:25;9.70;87.90
43647;DHT22;56152;49.996;18.980;2024-03-22T01:56:29;9.60;88.10
43647;DHT22;56152;49.996;18.980;2024-03-22T02:01:31;9.60;88.60
43647;DHT22;56152;49.996;18.980;2024-03-22T02:06:34;9.60;88.80
43647;DHT22;56152;49.996;18.980;2024-03-22T02:11:39;9.60;89.00
43647;DHT22;56152;49.996;18.980;2024-03-22T02:16:42;9.60;89.30
43647;DHT22;56152;49.996;18.980;2024-03-22T02:21:43;9.60;89.40
43647;DHT22;56152;49.996;18.980;2024-03-22T02:26:47;9.60;89.60
43647;DHT22;56152;49.996;18.980;2024-03-22T02:31:52;9.60;90.00
43647;DHT22;56152;49.996;18.980;2024-03-22T02:36:54;9.60;90.10
43647;DHT22;56152;49.996;18.980;2024-03-22T02:42:01;9.60;90.30
43647;DHT22;56152;49.996;18.980;2024-03-22T02:47:03;9.50;90.40
43647;DHT22;56152;49.996;18.980;2024-03-22T02:52:05;9.50;90.40
43647;DHT22;56152;49.996;18.980;2024-03-22T02:57:10;9.50;90.60
43647;DHT22;56152;49.996;18.980;2024-03-22T03:02:12;9.50;90.80
43647;DHT22;56152;49.996;18.980;2024-03-22T03:07:19;9.40;90.80
43647;DHT22;56152;49.996;18.980;2024-03-22T03:12:22;9.40;91.00
43647;DHT22;56152;49.996;18.980;2024-03-22T03:17:24;9.30;91.40
43647;DHT22;56152;49.996;18.980;2024-03-22T03:22:26;9.30;91.20
43647;DHT22;56152;49.996;18.980;2024-03-22T03:27:29;9.30;91.30
43647;DHT22;56152;49.996;18.980;2024-03-22T03:32:31;9.30;91.50
43647;DHT22;56152;49.996;18.980;2024-03-22T03:37:36;9.30;91.50
43647;DHT22;56152;49.996;18.980;2024-03-22T03:42:39;9.30;91.60
43647;DHT22;56152;49.996;18.980;2024-03-22T03:47:42;9.40;91.70
43647;DHT22;56152;49.996;18.980;2024-03-22T03:52:44;9.40;91.70
43647;DHT22;56152;49.996;18.980;2024-03-22T03:57:52;9.40;91.80
43647;DHT22;56152;49.996;18.980;2024-03-22T04:02:55;9.40;91.90
43647;DHT22;56152;49.996;18.980;2024-03-22T04:07:56;9.40;91.90
43647;DHT22;56152;49.996;18.980;2024-03-22T04:13:00;9.40;91.90
43647;DHT22;56152;49.996;18.980;2024-03-22T04:18:03;9.40;92.10
43647;DHT22;56152;49.996;18.980;2024-03-22T04:23:05;9.40;92.20
43647;DHT22;56152;49.996;18.980;2024-03-22T04:28:08;9.40;92.30
43647;DHT22;56152;49.996;18.980;2024-03-22T04:33:10;9.40;92.40
43647;DHT22;56152;49.996;18.980;2024-03-22T04:38:13;9.40;92.40
43647;DHT22;56152;49.996;18.980;2024-03-22T04:43:17;9.40;92.50
43647;DHT22;56152;49.996;18.980;2024-03-22T04:48:22;9.30;92.50
43647;DHT22;56152;49.996;18.980;2024-03-22T04:53:25;9.30;92.60
43647;DHT22;56152;49.996;18.980;2024-03-22T04:58:32;9.30;92.60
43647;DHT22;56152;49.996;18.980;2024-03-22T05:03:34;9.30;92.70
43647;DHT22;56152;49.996;18.980;2024-03-22T05:08:36;9.30;92.70
43647;DHT22;56152;49.996;18.980;2024-03-22T05:13:39;9.30;92.80
43647;DHT22;56152;49.996;18.980;2024-03-22T05:18:41;9.30;92.90
43647;DHT22;56152;49.996;18.980;2024-03-22T05:23:47;9.30;93.00
43647;DHT22;56152;49.996;18.980;2024-03-22T05:28:54;9.30;93.10
43647;DHT22;56152;49.996;18.980;2024-03-22T05:33:56;9.30;93.20
43647;DHT22;56152;49.996;18.980;2024-03-22T05:39:00;9.30;93.20
43647;DHT22;56152;49.996;18.980;2024-03-22T05:44:05;9.30;93.30
43647;DHT22;56152;49.996;18.980;2024-03-22T05:49:08;9.30;93.40
43647;DHT22;56152;49.996;18.980;2024-03-22T05:54:16;9.30;93.50
43647;DHT22;56152;49.996;18.980;2024-03-22T05:59:20;9.30;93.50
43647;DHT22;56152;49.996;18.980;2024-03-22T06:04:22;9.30;93.50
43647;DHT22;56152;49.996;18.980;2024-03-22T06:09:25;9.30;93.60
43647;DHT22;56152;49.996;18.980;2024-03-22T06:14:37;9.30;93.60
43647;DHT22;56152;49.996;18.980;2024-03-22T06:19:39;9.30;93.70
43647;DHT22;56152;49.996;18.980;2024-03-22T06:24:41;9.30;93.60
43647;DHT22;56152;49.996;18.980;2024-03-22T06:29:45;9.30;93.90
43647;DHT22;56152;49.996;18.980;2024-03-22T06:34:47;9.40;93.60
43647;DHT22;56152;49.996;18.980;2024-03-22T06:39:52;9.30;93.30
43647;DHT22;56152;49.996;18.980;2024-03-22T06:44:56;9.20;93.10
43647;DHT22;56152;49.996;18.980;2024-03-22T06:49:59;9.10;93.00
43647;DHT22;56152;49.996;18.980;2024-03-22T06:55:02;9.00;92.80
43647;DHT22;56152;49.996;18.980;2024-03-22T07:00:08;9.00;92.70
43647;DHT22;56152;49.996;18.980;2024-03-22T07:05:11;9.00;92.70
43647;DHT22;56152;49.996;18.980;2024-03-22T07:10:13;9.00;92.60
43647;DHT22;56152;49.996;18.980;2024-03-22T07:15:18;9.10;92.50
43647;DHT22;56152;49.996;18.980;2024-03-22T07:20:20;9.10;92.40
43647;DHT22;56152;49.996;18.980;2024-03-22T07:25:22;9.20;92.30
43647;DHT22;56152;49.996;18.980;2024-03-22T07:30:26;9.30;92.10
43647;DHT22;56152;49.996;18.980;2024-03-22T07:35:28;9.30;92.00
43647;DHT22;56152;49.996;18.980;2024-03-22T07:40:30;9.40;91.90
43647;DHT22;56152;49.996;18.980;2024-03-22T07:45:34;9.50;91.80
43647;DHT22;56152;49.996;18.980;2024-03-22T07:50:36;9.50;91.70
43647;DHT22;56152;49.996;18.980;2024-03-22T07:55:38;9.50;91.60
43647;DHT22;56152;49.996;18.980;2024-03-22T08:00:45;9.60;91.60
43647;DHT22;56152;49.996;18.980;2024-03-22T08:05:48;9.60;91.60
43647;DHT22;56152;49.996;18.980;2024-03-22T08:10:50;9.60;91.50
43647;DHT22;56152;49.996;18.980;2024-03-22T08:15:53;9.60;91.50
43647;DHT22;56152;49.996;18.980;2024-03-22T08:20:55;9.50;91.40
43647;DHT22;56152;49.996;18.980;2024-03-22T08:25:58;9.50;91.40
43647;DHT22;56152;49.996;18.980;2024-03-22T08:31:05;9.50;91.40
43647;DHT22;56152;49.996;18.980;2024-03-22T08:36:07;9.40;91.40
43647;DHT22;56152;49.996;18.980;2024-03-22T08:41:10;9.40;91.40
43647;DHT22;56152;49.996;18.980;2024-03-22T08:46:13;9.40;91.40
43647;DHT22;56152;49.996;18.980;2024-03-22T08:51:16;9.50;91.40
43647;DHT22;56152;49.996;18.980;2024-03-22T08:56:20;9.50;91.40
43647;DHT22;56152;49.996;18.980;2024-03-22T09:01:23;9.60;91.40
43647;DHT22;56152;49.996;18.980;2024-03-22T09:06:25;9.60;91.30
43647;DHT22;56152;49.996;18.980;2024-03-22T09:11:28;9.60;91.30
43647;DHT22;56152;49.996;18.980;2024-03-22T09:16:33;9.60;91.30
43647;DHT22;56152;49.996;18.980;2024-03-22T09:21:35;9.70;91.30
43647;DHT22;56152;49.996;18.980;2024-03-22T09:26:37;9.60;91.40
43647;DHT22;56152;49.996;18.980;2024-03-22T09:31:41;9.70;91.30
43647;DHT22;56152;49.996;18.980;2024-03-22T09:36:44;9.70;91.30
43647;DHT22;56152;49.996;18.980;2024-03-22T09:41:47;9.70;91.40
43647;DHT22;56152;49.996;18.980;2024-03-22T09:46:51;9.80;91.40
43647;DHT22;56152;49.996;18.980;2024-03-22T09:51:55;9.90;91.30
43647;DHT22;56152;49.996;18.980;2024-03-22T09:56:58;10.00;91.10
43647;DHT22;56152;49.996;18.980;2024-03-22T10:02:03;10.10;91.10
43647;DHT22;56152;49.996;18.980;2024-03-22T10:07:05;10.20;90.90
43647;DHT22;56152;49.996;18.980;2024-03-22T10:12:09;10.30;90.90
43647;DHT22;56152;49.996;18.980;2024-03-22T10:17:15;10.30;90.90
43647;DHT22;56152;49.996;18.980;2024-03-22T10:22:18;10.50;90.80
43647;DHT22;56152;49.996;18.980;2024-03-22T10:27:20;10.60;90.70
43647;DHT22;56152;49.996;18.980;2024-03-22T10:32:24;10.80;90.40
43647;DHT22;56152;49.996;18.980;2024-03-22T10:37:26;10.80;90.20
43647;DHT22;56152;49.996;18.980;2024-03-22T10:42:28;10.80;90.30
43647;DHT22;56152;49.996;18.980;2024-03-22T10:47:34;11.00;90.20
43647;DHT22;56152;49.996;18.980;2024-03-22T10:52:38;11.00;90.10
43647;DHT22;56152;49.996;18.980;2024-03-22T10:57:41;11.00;90.10
43647;DHT22;56152;49.996;18.980;2024-03-22T11:02:45;11.20;90.10
43647;DHT22;56152;49.996;18.980;2024-03-22T11:07:58;11.20;89.70
43647;DHT22;56152;49.996;18.980;2024-03-22T11:13:08;11.20;89.70
43647;DHT22;56152;49.996;18.980;2024-03-22T11:18:12;11.10;89.80
43647;DHT22;56152;49.996;18.980;2024-03-22T11:23:16;11.00;89.80
43647;DHT22;56152;49.996;18.980;2024-03-22T11:28:19;10.90;90.00
43647;DHT22;56152;49.996;18.980;2024-03-22T11:33:26;11.00;90.10
43647;DHT22;56152;49.996;18.980;2024-03-22T11:38:31;11.20;90.10
43647;DHT22;56152;49.996;18.980;2024-03-22T11:43:34;11.90;89.40
43647;DHT22;56152;49.996;18.980;2024-03-22T11:48:40;12.50;88.20
43647;DHT22;56152;49.996;18.980;2024-03-22T11:53:49;12.90;87.20
43647;DHT22;56152;49.996;18.980;2024-03-22T11:58:58;13.00;86.10
43647;DHT22;56152;49.996;18.980;2024-03-22T12:04:04;12.90;86.10
43647;DHT22;56152;49.996;18.980;2024-03-22T12:09:08;12.80;86.00
43647;DHT22;56152;49.996;18.980;2024-03-22T12:14:13;12.40;86.00
43647;DHT22;56152;49.996;18.980;2024-03-22T12:19:18;12.30;86.60
43647;DHT22;56152;49.996;18.980;2024-03-22T12:24:20;12.30;86.30
43647;DHT22;56152;49.996;18.980;2024-03-22T12:29:23;12.30;86.50
43647;DHT22;56152;49.996;18.980;2024-03-22T12:34:27;12.40;86.00
43647;DHT22;56152;49.996;18.980;2024-03-22T12:39:30;12.30;85.70
43647;DHT22;56152;49.996;18.980;2024-03-22T12:44:32;12.20;85.80
43647;DHT22;56152;49.996;18.980;2024-03-22T12:49:36;12.20;86.00
43647;DHT22;56152;49.996;18.980;2024-03-22T12:54:39;12.20;86.00
43647;DHT22;56152;49.996;18.980;2024-03-22T12:59:41;12.10;85.90
43647;DHT22;56152;49.996;18.980;2024-03-22T13:04:45;12.00;86.00
43647;DHT22;56152;49.996;18.980;2024-03-22T13:09:47;11.90;86.20
43647;DHT22;56152;49.996;18.980;2024-03-22T13:14:50;11.90;85.90
43647;DHT22;56152;49.996;18.980;2024-03-22T13:19:54;12.00;86.10
43647;DHT22;56152;49.996;18.980;2024-03-22T13:24:56;12.00;85.90
43647;DHT22;56152;49.996;18.980;2024-03-22T13:29:57;12.10;85.80
43647;DHT22;56152;49.996;18.980;2024-03-22T13:35:02;12.10;85.80
43647;DHT22;56152;49.996;18.980;2024-03-22T13:40:06;12.10;85.70
43647;DHT22;56152;49.996;18.980;2024-03-22T13:45:11;12.10;85.70
43647;DHT22;56152;49.996;18.980;2024-03-22T13:50:14;12.10;85.60
43647;DHT22;56152;49.996;18.980;2024-03-22T13:55:16;12.30;85.00
43647;DHT22;56152;49.996;18.980;2024-03-22T14:00:18;12.50;84.30
43647;DHT22;56152;49.996;18.980;2024-03-22T14:05:23;12.50;83.60
43647;DHT22;56152;49.996;18.980;2024-03-22T14:10:27;12.60;83.70
43647;DHT22;56152;49.996;18.980;2024-03-22T14:15:32;12.60;83.70
43647;DHT22;56152;49.996;18.980;2024-03-22T14:20:37;12.60;83.80
43647;DHT22;56152;49.996;18.980;2024-03-22T14:25:40;12.80;83.60
43647;DHT22;56152;49.996;18.980;2024-03-22T14:30:45;12.70;83.60
43647;DHT22;56152;49.996;18.980;2024-03-22T14:35:48;12.60;83.60
43647;DHT22;56152;49.996;18.980;2024-03-22T14:40:50;12.50;83.50
43647;DHT22;56152;49.996;18.980;2024-03-22T14:45:53;12.50;83.70
43647;DHT22;56152;49.996;18.980;2024-03-22T14:50:57;12.60;83.70
43647;DHT22;56152;49.996;18.980;2024-03-22T14:56:01;12.60;83.50
43647;DHT22;56152;49.996;18.980;2024-03-22T15:01:05;12.50;83.30
43647;DHT22;56152;49.996;18.980;2024-03-22T15:06:08;12.50;83.60
43647;DHT22;56152;49.996;18.980;2024-03-22T15:11:10;12.40;83.70
43647;DHT22;56152;49.996;18.980;2024-03-22T15:16:12;12.40;83.90
43647;DHT22;56152;49.996;18.980;2024-03-22T15:21:18;12.50;83.50
43647;DHT22;56152;49.996;18.980;2024-03-22T15:26:20;12.40;83.40
43647;DHT22;56152;49.996;18.980;2024-03-22T15:31:22;12.50;83.50
43647;DHT22;56152;49.996;18.980;2024-03-22T15:36:26;12.60;83.50
43647;DHT22;56152;49.996;18.980;2024-03-22T15:41:29;12.70;83.40
43647;DHT22;56152;49.996;18.980;2024-03-22T15:46:31;12.70;83.30
43647;DHT22;56152;49.996;18.980;2024-03-22T15:51:34;12.80;83.40
43647;DHT22;56152;49.996;18.980;2024-03-22T15:56:38;12.70;83.40
43647;DHT22;56152;49.996;18.980;2024-03-22T16:01:39;12.70;83.40
43647;DHT22;56152;49.996;18.980;2024-03-22T16:06:43;12.50;83.20
43647;DHT22;56152;49.996;18.980;2024-03-22T16:11:45;12.40;82.90
43647;DHT22;56152;49.996;18.980;2024-03-22T16:16:47;12.30;83.00
43647;DHT22;56152;49.996;18.980;2024-03-22T16:21:50;12.30;83.10
43647;DHT22;56152;49.996;18.980;2024-03-22T16:26:51;12.20;83.20
43647;DHT22;56152;49.996;18.980;2024-03-22T16:31:53;12.20;83.20
43647;DHT22;56152;49.996;18.980;2024-03-22T16:36:56;12.10;83.20
43647;DHT22;56152;49.996;18.980;2024-03-22T16:41:58;12.00;83.20
43647;DHT22;56152;49.996;18.980;2024-03-22T16:47:00;11.90;83.40
43647;DHT22;56152;49.996;18.980;2024-03-22T16:52:04;11.90;83.60
43647;DHT22;56152;49.996;18.980;2024-03-22T16:57:09;11.80;83.70
43647;DHT22;56152;49.996;18.980;2024-03-22T17:02:13;11.70;84.00
43647;DHT22;56152;49.996;18.980;2024-03-22T17:07:17;11.50;84.40
43647;DHT22;56152;49.996;18.980;2024-03-22T17:12:19;11.40;84.70
43647;DHT22;56152;49.996;18.980;2024-03-22T17:17:21;11.30;85.10
43647;DHT22;56152;49.996;18.980;2024-03-22T17:22:25;11.20;85.30
43647;DHT22;56152;49.996;18.980;2024-03-22T17:27:26;11.10;85.60
43647;DHT22;56152;49.996;18.980;2024-03-22T17:32:29;11.10;85.90
43647;DHT22;56152;49.996;18.980;2024-03-22T17:37:33;11.00;86.00
43647;DHT22;56152;49.996;18.980;2024-03-22T17:42:35;11.00;86.30
43647;DHT22;56152;49.996;18.980;2024-03-22T17:47:37;10.90;86.20
43647;DHT22;56152;49.996;18.980;2024-03-22T17:52:41;10.90;86.40
43647;DHT22;56152;49.996;18.980;2024-03-22T17:57:43;10.90;86.20
43647;DHT22;56152;49.996;18.980;2024-03-22T18:02:52;10.80;86.00
43647;DHT22;56152;49.996;18.980;2024-03-22T18:07:59;10.80;86.00
43647;DHT22;56152;49.996;18.980;2024-03-22T18:13:05;10.80;85.90
43647;DHT22;56152;49.996;18.980;2024-03-22T18:18:07;10.80;85.90
43647;DHT22;56152;49.996;18.980;2024-03-22T18:23:11;10.80;85.80
43647;DHT22;56152;49.996;18.980;2024-03-22T18:28:14;10.80;85.80
43647;DHT22;56152;49.996;18.980;2024-03-22T18:33:18;10.70;85.80
43647;DHT22;56152;49.996;18.980;2024-03-22T18:38:21;10.70;86.00
43647;DHT22;56152;49.996;18.980;2024-03-22T18:43:23;10.60;86.10
43647;DHT22;56152;49.996;18.980;2024-03-22T18:48:24;10.60;86.30
43647;DHT22;56152;49.996;18.980;2024-03-22T18:53:28;10.50;86.40
43647;DHT22;56152;49.996;18.980;2024-03-22T18:58:30;10.50;86.50
43647;DHT22;56152;49.996;18.980;2024-03-22T19:03:32;10.40;86.60
43647;DHT22;56152;49.996;18.980;2024-03-22T19:08:35;10.40;86.60
43647;DHT22;56152;49.996;18.980;2024-03-22T19:13:37;10.40;86.50
43647;DHT22;56152;49.996;18.980;2024-03-22T19:19:15;10.40;86.50
43647;DHT22;56152;49.996;18.980;2024-03-22T19:24:49;10.40;86.60
43647;DHT22;56152;49.996;18.980;2024-03-22T19:30:02;10.50;86.60
43647;DHT22;56152;49.996;18.980;2024-03-22T19:35:24;10.70;86.20
43647;DHT22;56152;49.996;18.980;2024-03-22T19:46:19;10.90;85.20
43647;DHT22;56152;49.996;18.980;2024-03-22T19:51:22;10.90;84.90
43647;DHT22;56152;49.996;18.980;2024-03-22T19:56:28;10.90;85.00
43647;DHT22;56152;49.996;18.980;2024-03-22T20:01:30;10.90;85.20
43647;DHT22;56152;49.996;18.980;2024-03-22T20:06:32;10.90;85.20
43647;DHT22;56152;49.996;18.980;2024-03-22T20:11:35;10.80;85.40
43647;DHT22;56152;49.996;18.980;2024-03-22T20:16:37;10.90;85.80
43647;DHT22;56152;49.996;18.980;2024-03-22T20:21:39;10.90;85.90
43647;DHT22;56152;49.996;18.980;2024-03-22T20:26:43;10.80;86.10
43647;DHT22;56152;49.996;18.980;2024-03-22T20:31:44;10.80;87.20
43647;DHT22;56152;49.996;18.980;2024-03-22T20:36:49;10.80;86.80
